createdAt,value
2022-11-22T00:06:24.598Z,93
2022-11-22T00:16:24.997Z,92
2022-11-22T00:26:25.227Z,93
2022-11-22T00:36:25.974Z,93
2022-11-22T00:46:26.153Z,93
2022-11-22T00:56:26.560Z,94
2022-11-22T01:06:26.861Z,94
2022-11-22T01:16:27.608Z,95
2022-11-22T01:26:27.911Z,96
2022-11-22T01:36:28.692Z,100
2022-11-22T01:46:29.481Z,100
2022-11-22T01:56:29.849Z,100
2022-11-22T02:06:30.176Z,100
2022-11-22T02:16:30.262Z,100
2022-11-22T02:26:31.248Z,100
2022-11-22T02:36:31.906Z,100
2022-11-22T02:46:32.526Z,100
2022-11-22T02:56:33.044Z,100
2022-11-22T03:06:33.362Z,100
2022-11-22T03:16:33.991Z,100
2022-11-22T03:26:34.359Z,99
2022-11-22T03:36:35.047Z,99
2022-11-22T03:46:35.492Z,98
2022-11-22T03:56:36.049Z,98
2022-11-22T04:06:36.407Z,98
2022-11-22T04:16:36.544Z,99
2022-11-22T04:26:36.912Z,99
2022-11-22T04:36:37.540Z,99
2022-11-22T04:46:38.461Z,99
2022-11-22T04:56:38.768Z,100
2022-11-22T05:06:39.376Z,100
2022-11-22T05:16:40.037Z,100
2022-11-22T05:26:40.142Z,100
2022-11-22T05:36:41.004Z,100
2022-11-22T05:46:41.182Z,100
2022-11-22T05:56:41.321Z,100
2022-11-22T06:06:42.193Z,100
2022-11-22T06:16:43.168Z,100
2022-11-22T06:26:44.064Z,100
2022-11-22T06:36:44.414Z,100
2022-11-22T06:46:45.350Z,100
2022-11-22T06:56:45.974Z,100
2022-11-22T07:06:46.899Z,100
2022-11-22T07:16:47.152Z,100
2022-11-22T07:26:47.939Z,100
2022-11-22T07:46:48.589Z,97
2022-11-22T07:56:49.065Z,96
2022-11-22T08:06:50.016Z,95
2022-11-22T08:16:50.418Z,93
2022-11-22T08:26:51.333Z,92
2022-11-22T08:36:52.062Z,91
2022-11-22T08:46:52.915Z,90
2022-11-22T08:56:53.489Z,90
2022-11-22T09:16:54.830Z,89
2022-11-22T09:26:55.767Z,89
2022-11-22T09:36:56.682Z,89
2022-11-22T09:46:57.676Z,89
2022-11-22T09:56:58.338Z,89
2022-11-22T10:06:58.874Z,90
2022-11-22T10:16:59.586Z,89
2022-11-22T10:26:59.797Z,89
2022-11-22T10:37:00.602Z,89
2022-11-22T10:47:00.792Z,89
2022-11-22T10:57:00.949Z,89
2022-11-22T11:07:12.895Z,89
2022-11-22T11:17:01.944Z,89
2022-11-22T11:27:02.760Z,89
2022-11-22T11:37:03.328Z,89
2022-11-22T11:47:04.090Z,89
2022-11-22T11:57:04.578Z,89
2022-11-22T12:07:05.191Z,89
2022-11-22T12:17:05.756Z,89
2022-11-22T12:27:06.737Z,89
2022-11-22T12:37:07.335Z,89
2022-11-22T12:47:08.151Z,89
2022-11-22T12:57:09.196Z,89
2022-11-22T13:07:09.419Z,89
2022-11-22T13:17:10.062Z,88
2022-11-22T13:27:10.958Z,89
2022-11-22T13:37:11.974Z,88
2022-11-22T13:47:12.691Z,88
2022-11-22T13:57:13.349Z,89
2022-11-22T14:07:14.322Z,89
2022-11-22T14:17:14.379Z,88
2022-11-22T14:27:14.884Z,89
2022-11-22T14:47:16.006Z,88
2022-11-22T15:09:08.378Z,89
2022-11-22T15:57:22.510Z,88
2022-11-22T16:17:21.607Z,89
2022-11-22T16:27:22.645Z,89
2022-11-22T16:37:31.762Z,89
2022-11-22T16:47:29.764Z,89
2022-11-22T16:57:30.595Z,89
2022-11-22T17:07:30.834Z,90
2022-11-22T17:17:30.850Z,91
2022-11-22T17:27:31.876Z,92
2022-11-22T17:37:32.853Z,95
2022-11-22T17:47:33.427Z,97
2022-11-22T17:57:33.495Z,97
2022-11-22T18:07:33.916Z,100
2022-11-22T18:17:34.195Z,100
2022-11-22T18:27:39.085Z,100
2022-11-22T18:37:35.242Z,100
2022-11-22T18:47:36.167Z,100
2022-11-22T18:57:36.612Z,100
2022-11-22T19:07:36.810Z,100
2022-11-22T19:17:37.717Z,100
2022-11-22T19:27:38.261Z,100
2022-11-22T19:37:38.658Z,100
2022-11-22T19:47:39.528Z,100
2022-11-22T19:57:39.904Z,100
2022-11-22T20:07:40.997Z,100
2022-11-22T20:27:42.002Z,100
2022-11-22T20:37:42.752Z,100
2022-11-22T20:47:43.362Z,100
2022-11-22T20:57:44.366Z,100
2022-11-22T21:07:44.514Z,100
2022-11-22T21:18:02.323Z,100
2022-11-22T21:27:46.155Z,99
2022-11-22T21:37:46.959Z,99
2022-11-22T21:47:47.671Z,98
2022-11-22T21:57:48.059Z,100
2022-11-22T22:07:52.839Z,100
2022-11-22T22:17:49.516Z,100
2022-11-22T22:27:50.309Z,100
2022-11-22T22:37:50.368Z,99
2022-11-22T22:47:50.811Z,99
2022-11-22T22:57:51.234Z,99
2022-11-22T23:07:51.905Z,100
2022-11-22T23:17:52.883Z,100
2022-11-22T23:27:53.710Z,100
2022-11-22T23:37:54.154Z,100
2022-11-22T23:47:55.150Z,100
2022-11-22T23:57:55.401Z,100
